Time;durP1;ratioP1;P1;durP2;ratioP2;P2;SDS_P1;SDS_P2;PMS_P1;PMS_P2;Temp;Humidity;BMP_temperature;BMP_pressure;BME280_temperature;BME280_humidity;BME280_pressure;Samples;Min_cycle;Max_cycle;Signal;HPM_P1;HPM_P2
2022/07/31 00:01:19;;;;;;;7.75;4.47;;;21.00;77.10;;;;;;5014000;28;20034;-66
2022/07/31 00:03:44;;;;;;;4.93;4.28;;;20.90;77.20;;;;;;5013233;28;20026;-66
2022/07/31 00:06:10;;;;;;;5.25;4.50;;;20.90;77.60;;;;;;5014424;28;20540;-68
2022/07/31 00:08:36;;;;;;;9.43;4.10;;;20.80;77.80;;;;;;5011658;28;20030;-65
2022/07/31 00:11:01;;;;;;;8.65;4.80;;;20.80;78.10;;;;;;5010032;28;20041;-66
2022/07/31 00:13:27;;;;;;;7.60;5.10;;;20.80;78.10;;;;;;5012294;28;20056;-66
2022/07/31 00:15:53;;;;;;;6.32;4.60;;;20.80;78.40;;;;;;5012873;28;20034;-65
2022/07/31 00:18:18;;;;;;;8.65;5.25;;;20.70;78.70;;;;;;5011560;28;20501;-65
2022/07/31 00:20:44;;;;;;;6.65;5.03;;;20.70;78.80;;;;;;5011812;28;20033;-65
2022/07/31 00:23:10;;;;;;;7.90;5.15;;;20.70;78.70;;;;;;5012270;28;20049;-66
2022/07/31 00:25:35;;;;;;;5.55;4.22;;;20.70;79.10;;;;;;5012475;28;20029;-65
2022/07/31 00:28:01;;;;;;;5.97;4.78;;;20.70;79.50;;;;;;5012715;28;20022;-65
2022/07/31 00:30:27;;;;;;;8.18;4.63;;;20.60;79.10;;;;;;5014317;28;20025;-65
2022/07/31 00:32:53;;;;;;;7.00;4.97;;;20.60;80.10;;;;;;5012011;28;20044;-65
2022/07/31 00:35:19;;;;;;;8.15;5.03;;;20.60;79.60;;;;;;5013973;28;20034;-64
2022/07/31 00:37:45;;;;;;;7.85;4.85;;;20.60;80.00;;;;;;5010350;28;20056;-64
2022/07/31 00:40:12;;;;;;;6.90;4.78;;;20.50;80.30;;;;;;5012240;28;20430;-64
2022/07/31 00:42:38;;;;;;;9.27;5.43;;;20.50;80.60;;;;;;5012878;28;20465;-66
2022/07/31 00:45:05;;;;;;;7.85;5.60;;;20.40;80.70;;;;;;5012165;28;20030;-65
2022/07/31 00:47:30;;;;;;;9.52;5.57;;;20.50;81.10;;;;;;5012289;28;20045;-65
2022/07/31 00:49:56;;;;;;;7.63;5.05;;;20.50;81.20;;;;;;5013798;28;20368;-66
2022/07/31 00:52:22;;;;;;;6.80;4.75;;;20.40;81.10;;;;;;5011573;28;20033;-66
2022/07/31 00:54:47;;;;;;;7.90;5.22;;;20.40;81.50;;;;;;5012429;28;20030;-65
2022/07/31 00:57:14;;;;;;;10.52;5.70;;;20.40;81.70;;;;;;5011246;28;20038;-66
2022/07/31 00:59:40;;;;;;;8.13;5.20;;;20.40;81.80;;;;;;5012407;28;20376;-66
2022/07/31 01:02:07;;;;;;;6.95;5.63;;;20.40;81.70;;;;;;5012155;28;20026;-65
2022/07/31 01:04:33;;;;;;;7.20;5.13;;;20.40;82.00;;;;;;5013033;28;20545;-65
2022/07/31 01:06:59;;;;;;;8.63;5.70;;;20.30;82.10;;;;;;5012118;28;20034;-65
2022/07/31 01:09:26;;;;;;;8.05;5.13;;;20.30;82.40;;;;;;5010680;28;20034;-65
2022/07/31 01:12:15;;;;;;;6.05;5.45;;;20.30;82.60;;;;;;5011622;28;20089;-65
2022/07/31 01:14:58;;;;;;;6.95;5.18;;;20.30;82.40;;;;;;5009719;28;20835;-65
2022/07/31 01:17:25;;;;;;;6.15;5.05;;;20.30;82.70;;;;;;5011576;28;20038;-65
2022/07/31 01:19:52;;;;;;;7.70;5.72;;;20.20;83.00;;;;;;5012667;28;20501;-65
2022/07/31 01:22:44;;;;;;;7.35;5.55;;;20.20;83.30;;;;;;5010746;28;20042;-65
2022/07/31 01:25:36;;;;;;;8.10;5.57;;;20.30;83.40;;;;;;5010921;28;20384;-65
2022/07/31 01:28:08;;;;;;;8.27;5.60;;;20.20;83.30;;;;;;5008345;28;20396;-65
2022/07/31 01:31:06;;;;;;;8.05;5.55;;;20.10;84.00;;;;;;5010193;28;20057;-65
2022/07/31 01:33:40;;;;;;;9.32;5.90;;;20.10;84.30;;;;;;5009646;28;20262;-65
2022/07/31 01:36:12;;;;;;;8.85;5.47;;;20.00;84.30;;;;;;5012566;28;20596;-65
2022/07/31 01:38:43;;;;;;;8.18;5.55;;;20.00;84.70;;;;;;5011289;28;20061;-65
2022/07/31 01:41:12;;;;;;;6.20;5.10;;;20.00;85.00;;;;;;5009879;28;20024;-65
2022/07/31 01:43:43;;;;;;;6.95;5.25;;;20.00;85.30;;;;;;5011572;28;20041;-65
2022/07/31 01:46:12;;;;;;;8.65;6.20;;;20.00;85.80;;;;;;5011770;28;20089;-65
2022/07/31 01:48:39;;;;;;;7.57;5.80;;;20.00;85.90;;;;;;5008731;28;20025;-65
2022/07/31 01:51:07;;;;;;;8.75;5.28;;;19.90;86.00;;;;;;5010856;28;20022;-65
2022/07/31 01:53:35;;;;;;;8.98;6.22;;;19.90;86.30;;;;;;5011315;28;20030;-64
2022/07/31 01:56:01;;;;;;;7.38;5.93;;;19.90;86.70;;;;;;5011940;28;20080;-65
2022/07/31 01:58:28;;;;;;;9.88;6.60;;;19.90;86.90;;;;;;5009367;28;20025;-63
2022/07/31 02:00:57;;;;;;;10.98;6.30;;;19.90;87.10;;;;;;5011161;28;20057;-64
2022/07/31 02:03:24;;;;;;;9.50;5.78;;;19.90;87.20;;;;;;5010103;28;20022;-64
2022/07/31 02:05:50;;;;;;;8.23;6.35;;;19.90;87.90;;;;;;5011598;28;20099;-64
2022/07/31 02:08:17;;;;;;;8.68;5.97;;;19.90;87.70;;;;;;5009795;28;20041;-64
2022/07/31 02:10:47;;;;;;;10.77;6.78;;;19.90;87.70;;;;;;5007828;28;20394;-64
2022/07/31 02:13:13;;;;;;;8.50;5.72;;;19.90;87.90;;;;;;5010595;28;20381;-64
2022/07/31 02:15:41;;;;;;;8.00;5.82;;;19.90;87.90;;;;;;5012765;28;20033;-64
2022/07/31 02:18:09;;;;;;;9.02;5.95;;;19.90;88.20;;;;;;5009117;28;20022;-64
2022/07/31 02:20:37;;;;;;;6.95;5.45;;;19.90;88.40;;;;;;5015091;28;20041;-64
2022/07/31 02:23:03;;;;;;;8.52;6.50;;;19.90;88.60;;;;;;5011238;28;20488;-64
2022/07/31 02:25:29;;;;;;;9.02;6.50;;;19.90;88.80;;;;;;5011037;28;20111;-64
2022/07/31 02:27:58;;;;;;;7.57;5.63;;;19.80;89.10;;;;;;5009191;28;20375;-64
2022/07/31 02:30:28;;;;;;;7.93;6.10;;;19.80;89.10;;;;;;4996046;28;20394;-64
2022/07/31 02:32:54;;;;;;;7.47;5.78;;;19.80;89.50;;;;;;5009671;28;20037;-64
2022/07/31 02:35:20;;;;;;;7.68;5.57;;;19.70;89.40;;;;;;4995994;28;20432;-64
2022/07/31 02:37:49;;;;;;;7.75;5.85;;;19.70;90.00;;;;;;5010176;28;20026;-64
2022/07/31 02:40:15;;;;;;;7.20;5.47;;;19.70;90.00;;;;;;4992434;28;20061;-64
2022/07/31 02:42:42;;;;;;;9.20;5.97;;;19.70;90.10;;;;;;5007113;28;20033;-64
2022/07/31 02:45:11;;;;;;;6.47;5.38;;;19.60;90.10;;;;;;5009814;28;20516;-64
2022/07/31 02:47:37;;;;;;;7.88;5.88;;;19.70;90.30;;;;;;5010342;28;20030;-65
2022/07/31 02:50:04;;;;;;;8.95;5.65;;;19.60;90.40;;;;;;5006620;28;20026;-64
2022/07/31 02:52:30;;;;;;;9.80;5.97;;;19.60;90.60;;;;;;5009518;28;20091;-64
2022/07/31 02:54:57;;;;;;;10.35;5.97;;;19.60;90.80;;;;;;5011265;28;20037;-64
2022/07/31 02:57:22;;;;;;;9.30;6.85;;;19.60;91.00;;;;;;5009196;28;20030;-64
2022/07/31 02:59:48;;;;;;;7.78;6.53;;;19.60;91.00;;;;;;5010992;28;20060;-64
2022/07/31 03:02:14;;;;;;;11.32;7.10;;;19.50;91.10;;;;;;5009590;28;20124;-65
2022/07/31 03:04:39;;;;;;;8.10;6.13;;;19.50;91.20;;;;;;5011292;28;20030;-64
2022/07/31 03:07:05;;;;;;;7.97;6.10;;;19.50;91.30;;;;;;5009531;28;20038;-64
2022/07/31 03:09:30;;;;;;;8.65;7.22;;;19.50;91.30;;;;;;5008581;28;20037;-64
2022/07/31 03:11:57;;;;;;;8.55;6.50;;;19.50;91.40;;;;;;5008656;28;20045;-64
2022/07/31 03:14:25;;;;;;;10.10;6.63;;;19.50;91.50;;;;;;5010110;28;20066;-64
2022/07/31 03:16:51;;;;;;;8.35;5.90;;;19.50;91.50;;;;;;5011179;28;20145;-64
2022/07/31 03:19:19;;;;;;;8.98;5.63;;;19.50;91.60;;;;;;5010264;28;20481;-64
2022/07/31 03:21:46;;;;;;;8.15;6.18;;;19.50;91.80;;;;;;5008581;28;20073;-64
2022/07/31 03:24:12;;;;;;;8.45;6.65;;;19.50;91.80;;;;;;5009504;28;20091;-64
2022/07/31 03:26:38;;;;;;;8.55;6.80;;;19.50;91.90;;;;;;5011331;28;20423;-64
2022/07/31 03:29:03;;;;;;;8.63;5.95;;;19.50;91.90;;;;;;5008609;28;20591;-64
2022/07/31 03:31:29;;;;;;;8.40;6.50;;;19.50;91.90;;;;;;5009637;28;20034;-64
2022/07/31 03:33:55;;;;;;;10.27;6.90;;;19.40;91.80;;;;;;5009625;28;20030;-64
2022/07/31 03:36:20;;;;;;;9.18;6.60;;;19.40;91.90;;;;;;5010101;28;20115;-64
2022/07/31 03:38:46;;;;;;;8.52;6.15;;;19.40;92.10;;;;;;5010085;28;20066;-64
2022/07/31 03:41:12;;;;;;;8.63;6.82;;;19.30;92.10;;;;;;5009649;28;20045;-64
2022/07/31 03:43:39;;;;;;;7.30;6.45;;;19.30;92.30;;;;;;5009574;28;20029;-64
2022/07/31 03:46:05;;;;;;;8.73;6.28;;;19.30;92.40;;;;;;5008714;28;20029;-64
2022/07/31 03:48:31;;;;;;;9.68;6.40;;;19.30;92.80;;;;;;5010846;28;20026;-63
2022/07/31 03:50:56;;;;;;;8.93;6.38;;;19.30;92.80;;;;;;5010062;28;20378;-64
2022/07/31 03:53:23;;;;;;;9.15;6.68;;;19.30;92.90;;;;;;5010027;28;20036;-64
2022/07/31 03:55:50;;;;;;;8.30;6.88;;;19.30;93.00;;;;;;5011294;28;20541;-64
2022/07/31 03:58:17;;;;;;;8.43;6.55;;;19.30;93.10;;;;;;5011952;28;20472;-64
2022/07/31 04:00:44;;;;;;;10.93;7.25;;;19.30;93.20;;;;;;5018653;28;20038;-64
2022/07/31 04:03:11;;;;;;;7.93;6.20;;;19.30;93.20;;;;;;5007763;28;20030;-64
2022/07/31 04:05:41;;;;;;;8.13;6.72;;;19.30;93.40;;;;;;5008198;28;20458;-63
2022/07/31 04:08:08;;;;;;;7.88;6.30;;;19.30;93.50;;;;;;5009362;28;20034;-63
2022/07/31 04:10:35;;;;;;;9.32;6.45;;;19.40;93.40;;;;;;5008552;28;20038;-64
2022/07/31 04:13:01;;;;;;;9.77;6.88;;;19.40;93.60;;;;;;5007426;28;20569;-63
2022/07/31 04:15:27;;;;;;;10.82;6.85;;;19.40;93.60;;;;;;5010387;28;20121;-64
2022/07/31 04:17:53;;;;;;;10.13;6.80;;;19.50;93.70;;;;;;5008154;28;20117;-64
2022/07/31 04:20:20;;;;;;;11.50;7.20;;;19.50;93.70;;;;;;5021513;28;20038;-63
2022/07/31 04:22:46;;;;;;;9.55;7.30;;;19.50;93.80;;;;;;5012504;28;20034;-65
2022/07/31 04:25:12;;;;;;;9.35;7.00;;;19.50;93.90;;;;;;5012964;28;20080;-65
2022/07/31 04:27:37;;;;;;;8.90;6.03;;;19.50;93.80;;;;;;5013800;28;20022;-64
2022/07/31 04:30:04;;;;;;;9.45;6.43;;;19.60;93.80;;;;;;5013154;28;20030;-65
2022/07/31 04:32:29;;;;;;;9.18;6.53;;;19.60;93.80;;;;;;5011662;28;20048;-65
2022/07/31 04:34:55;;;;;;;8.23;6.72;;;19.60;93.90;;;;;;5010272;28;20018;-65
2022/07/31 04:37:21;;;;;;;8.98;6.78;;;19.70;93.90;;;;;;5013102;28;20561;-65
2022/07/31 04:39:47;;;;;;;8.25;6.53;;;19.80;93.90;;;;;;5013137;28;20030;-65
2022/07/31 04:42:12;;;;;;;9.77;5.78;;;19.80;93.90;;;;;;5011792;28;20476;-65
2022/07/31 04:44:38;;;;;;;10.30;6.43;;;19.80;93.80;;;;;;5012520;28;20036;-65
2022/07/31 04:47:05;;;;;;;9.05;6.95;;;19.90;93.80;;;;;;5011963;28;20326;-65
2022/07/31 04:49:32;;;;;;;9.43;6.88;;;20.00;93.80;;;;;;5021559;28;20034;-65
2022/07/31 04:52:01;;;;;;;7.70;6.03;;;20.00;93.70;;;;;;5013113;28;20445;-65
2022/07/31 04:54:28;;;;;;;7.35;6.25;;;20.10;93.70;;;;;;5025518;28;20022;-65
2022/07/31 04:56:54;;;;;;;9.63;6.43;;;20.20;93.60;;;;;;5012857;28;20042;-65
2022/07/31 04:59:21;;;;;;;7.55;6.00;;;20.20;93.50;;;;;;5012792;28;20465;-65
2022/07/31 05:01:47;;;;;;;8.82;5.85;;;20.20;93.20;;;;;;5011913;28;20431;-65
2022/07/31 05:04:13;;;;;;;7.30;6.32;;;20.30;93.10;;;;;;5011921;28;20030;-69
2022/07/31 05:06:41;;;;;;;10.25;6.68;;;20.30;93.10;;;;;;5013511;28;20053;-72
2022/07/31 05:09:13;;;;;;;7.60;6.57;;;20.40;93.20;;;;;;5012488;28;20058;-68
2022/07/31 05:11:39;;;;;;;6.97;6.20;;;20.30;93.10;;;;;;5011895;28;20038;-68
2022/07/31 05:14:07;;;;;;;11.02;6.43;;;20.40;93.20;;;;;;5011387;28;20026;-68
2022/07/31 05:16:33;;;;;;;12.70;6.65;;;20.40;93.30;;;;;;5012078;28;20040;-65
2022/07/31 05:19:00;;;;;;;8.18;6.28;;;20.40;93.30;;;;;;5011914;28;20034;-67
2022/07/31 05:21:26;;;;;;;10.45;6.30;;;20.50;93.40;;;;;;5012795;28;20188;-65
2022/07/31 05:23:53;;;;;;;10.00;7.20;;;20.50;93.40;;;;;;5011343;28;20113;-67
2022/07/31 05:26:19;;;;;;;9.50;6.93;;;20.50;93.40;;;;;;5012635;28;20021;-66
2022/07/31 05:28:45;;;;;;;8.95;6.45;;;20.60;93.30;;;;;;5009955;28;20022;-66
2022/07/31 05:31:11;;;;;;;9.60;6.75;;;20.70;93.20;;;;;;5010673;28;20133;-66
2022/07/31 05:33:37;;;;;;;9.20;6.20;;;20.60;93.10;;;;;;5015314;28;20168;-66
2022/07/31 05:36:04;;;;;;;9.05;6.40;;;20.70;93.00;;;;;;5013905;28;20470;-67
2022/07/31 05:38:30;;;;;;;8.77;6.55;;;20.70;93.00;;;;;;5011955;28;20496;-66
2022/07/31 05:40:55;;;;;;;8.32;6.88;;;20.80;93.00;;;;;;5011578;28;20053;-65
2022/07/31 05:43:21;;;;;;;9.75;7.38;;;20.80;92.90;;;;;;5009802;28;20108;-66
2022/07/31 05:45:46;;;;;;;9.68;6.80;;;20.90;92.90;;;;;;5012146;28;20034;-66
2022/07/31 05:48:13;;;;;;;9.63;7.53;;;20.90;92.90;;;;;;5010895;28;20038;-65
2022/07/31 05:50:46;;;;;;;10.02;7.10;;;20.90;92.60;;;;;;5012713;28;20500;-65
2022/07/31 05:53:15;;;;;;;8.48;6.65;;;21.00;92.60;;;;;;5011926;28;20037;-65
2022/07/31 05:55:42;;;;;;;7.40;6.65;;;21.00;92.50;;;;;;5011101;28;20120;-65
2022/07/31 05:58:09;;;;;;;10.27;6.68;;;21.10;92.40;;;;;;5010626;28;20025;-66
2022/07/31 06:00:35;;;;;;;8.77;6.60;;;21.10;92.10;;;;;;5009703;28;20033;-66
2022/07/31 06:03:01;;;;;;;10.85;6.63;;;21.10;92.10;;;;;;5010583;28;20096;-66
2022/07/31 06:05:28;;;;;;;9.13;5.65;;;21.20;91.80;;;;;;5009118;28;20042;-66
2022/07/31 06:07:54;;;;;;;8.82;5.82;;;21.20;91.70;;;;;;5011742;28;20041;-66
2022/07/31 06:10:21;;;;;;;6.80;6.03;;;21.30;91.60;;;;;;5011756;28;20034;-66
2022/07/31 06:12:46;;;;;;;8.55;5.82;;;21.40;91.30;;;;;;5010561;28;20033;-66
2022/07/31 06:15:12;;;;;;;7.43;5.40;;;21.40;91.30;;;;;;5010098;28;20018;-66
2022/07/31 06:17:38;;;;;;;8.02;5.53;;;21.50;91.40;;;;;;5012988;28;20026;-66
2022/07/31 06:20:04;;;;;;;6.38;5.28;;;21.60;91.20;;;;;;5011165;28;20100;-66
2022/07/31 06:22:30;;;;;;;6.70;5.45;;;21.60;91.10;;;;;;5010565;28;20190;-66
2022/07/31 06:24:56;;;;;;;9.80;5.72;;;21.60;91.10;;;;;;5010929;28;20030;-66
2022/07/31 06:27:21;;;;;;;7.10;5.05;;;21.70;91.00;;;;;;5006776;28;20037;-66
2022/07/31 06:29:47;;;;;;;5.93;5.32;;;21.70;90.90;;;;;;5012317;28;20044;-65
2022/07/31 06:32:13;;;;;;;8.45;5.05;;;21.80;90.60;;;;;;5008256;28;20049;-65
2022/07/31 06:34:40;;;;;;;6.70;5.55;;;21.80;90.60;;;;;;5003623;28;20030;-67
2022/07/31 06:37:05;;;;;;;7.95;5.47;;;21.90;90.50;;;;;;5010681;28;20034;-65
2022/07/31 06:39:31;;;;;;;7.18;5.75;;;21.90;90.40;;;;;;5012250;28;20414;-65
2022/07/31 06:41:57;;;;;;;6.15;4.97;;;22.00;90.40;;;;;;5010326;28;20044;-65
2022/07/31 06:44:22;;;;;;;11.02;5.85;;;22.00;90.30;;;;;;5011514;28;20033;-65
2022/07/31 06:46:54;;;;;;;6.75;5.35;;;22.00;90.10;;;;;;5007764;28;20057;-65
2022/07/31 06:49:19;;;;;;;8.85;5.57;;;22.10;90.10;;;;;;5000505;28;20454;-64
2022/07/31 06:51:45;;;;;;;9.68;5.47;;;22.20;90.00;;;;;;5013194;28;20545;-66
2022/07/31 06:54:11;;;;;;;8.13;4.90;;;22.20;89.60;;;;;;5009397;28;20081;-64
2022/07/31 06:56:37;;;;;;;7.78;5.43;;;22.20;89.10;;;;;;5009748;28;20056;-65
2022/07/31 06:59:05;;;;;;;5.50;4.15;;;22.30;88.20;;;;;;5010635;28;20030;-66
2022/07/31 07:01:30;;;;;;;6.85;3.97;;;22.30;87.50;;;;;;5010593;28;20088;-66
2022/07/31 07:03:56;;;;;;;6.10;4.35;;;22.40;87.20;;;;;;5011863;28;20045;-66
2022/07/31 07:06:22;;;;;;;10.00;4.65;;;22.40;87.00;;;;;;5008002;28;20060;-65
2022/07/31 07:08:49;;;;;;;6.50;4.43;;;22.50;86.80;;;;;;5010600;28;20080;-66
2022/07/31 07:11:14;;;;;;;5.82;4.00;;;22.50;85.20;;;;;;5010561;28;20073;-65
2022/07/31 07:13:41;;;;;;;7.20;4.82;;;22.50;85.40;;;;;;5009900;28;20115;-65
2022/07/31 07:16:06;;;;;;;6.72;3.72;;;22.50;85.30;;;;;;5010293;28;20026;-65
2022/07/31 07:18:32;;;;;;;5.82;4.07;;;22.60;85.60;;;;;;5010978;28;20022;-65
2022/07/31 07:20:58;;;;;;;5.28;3.83;;;22.60;84.30;;;;;;5011016;28;20049;-67
2022/07/31 07:23:23;;;;;;;5.80;3.75;;;22.60;84.00;;;;;;5010300;28;20052;-66
2022/07/31 07:25:49;;;;;;;7.63;3.95;;;22.70;83.90;;;;;;5012345;28;20014;-66
2022/07/31 07:28:16;;;;;;;5.85;3.53;;;22.80;83.60;;;;;;5005018;28;20076;-66
2022/07/31 07:30:42;;;;;;;5.60;3.40;;;22.90;83.00;;;;;;5010886;28;20063;-66
2022/07/31 07:33:08;;;;;;;4.72;3.88;;;22.90;82.40;;;;;;5009690;28;20370;-66
2022/07/31 07:35:35;;;;;;;8.23;3.70;;;22.90;81.90;;;;;;5011634;28;20026;-66
2022/07/31 07:38:01;;;;;;;6.72;3.25;;;23.00;81.50;;;;;;5008069;28;20034;-66
2022/07/31 07:40:28;;;;;;;6.80;4.00;;;23.00;81.40;;;;;;5011176;28;20026;-66
2022/07/31 07:42:53;;;;;;;7.45;3.55;;;23.10;81.10;;;;;;5010384;28;20022;-66
2022/07/31 07:45:19;;;;;;;6.38;3.88;;;23.10;81.10;;;;;;5011406;28;20109;-66
2022/07/31 07:47:45;;;;;;;4.95;3.50;;;23.20;80.80;;;;;;5009709;28;20458;-66
2022/07/31 07:50:11;;;;;;;4.45;3.55;;;23.30;80.80;;;;;;5023488;28;20040;-66
2022/07/31 07:52:37;;;;;;;7.63;4.00;;;23.30;80.40;;;;;;5010251;28;20572;-66
2022/07/31 07:55:04;;;;;;;4.90;3.40;;;23.30;80.10;;;;;;5010553;28;20113;-66
2022/07/31 07:57:30;;;;;;;5.80;4.15;;;23.40;79.60;;;;;;5013557;28;20022;-75
2022/07/31 07:59:59;;;;;;;5.93;4.03;;;23.40;79.40;;;;;;5010775;28;20022;-72
2022/07/31 08:02:24;;;;;;;6.65;4.07;;;23.50;78.40;;;;;;5012342;28;20030;-71
2022/07/31 08:04:50;;;;;;;6.78;3.50;;;23.50;78.80;;;;;;5013164;28;20069;-70
2022/07/31 08:07:16;;;;;;;4.47;3.70;;;23.60;78.50;;;;;;5014088;28;20030;-74
2022/07/31 08:09:42;;;;;;;8.05;4.40;;;23.60;78.40;;;;;;5007131;28;20457;-70
2022/07/31 08:12:07;;;;;;;7.20;4.13;;;23.70;78.10;;;;;;4999454;28;20553;-71
2022/07/31 08:14:33;;;;;;;4.80;3.72;;;23.70;78.10;;;;;;5010460;28;20117;-73
2022/07/31 08:16:59;;;;;;;6.95;3.63;;;23.80;77.80;;;;;;5007482;28;20037;-71
2022/07/31 08:19:25;;;;;;;7.03;3.78;;;23.80;77.60;;;;;;5013931;28;20053;-70
2022/07/31 08:21:50;;;;;;;5.40;3.80;;;23.90;77.80;;;;;;5013257;28;20081;-71
2022/07/31 08:24:16;;;;;;;6.82;3.88;;;24.00;77.50;;;;;;5013685;28;20540;-70
2022/07/31 08:29:26;;;;;;;6.63;3.70;;;24.10;77.50;;;;;;5014076;28;20088;-70
2022/07/31 08:31:53;;;;;;;7.53;4.20;;;24.20;78.60;;;;;;5011212;28;20209;-70
2022/07/31 08:34:18;;;;;;;7.85;4.03;;;24.20;77.40;;;;;;5013977;28;20033;-72
2022/07/31 08:36:44;;;;;;;5.65;4.00;;;24.30;77.10;;;;;;5008232;28;20026;-71
2022/07/31 08:39:10;;;;;;;8.82;4.25;;;24.30;76.90;;;;;;5012811;28;20022;-68
2022/07/31 08:41:39;;;;;;;6.72;3.38;;;24.40;76.70;;;;;;5004878;28;20057;-65
2022/07/31 08:44:06;;;;;;;4.75;3.60;;;24.50;76.60;;;;;;5012242;28;20026;-66
2022/07/31 08:46:41;;;;;;;5.40;3.88;;;24.50;76.30;;;;;;5005243;28;20023;-66
2022/07/31 08:49:08;;;;;;;5.72;3.97;;;24.60;76.70;;;;;;5009461;28;20713;-66
2022/07/31 08:51:36;;;;;;;4.63;3.60;;;24.60;75.30;;;;;;5013325;28;20044;-66
2022/07/31 08:54:06;;;;;;;6.15;3.80;;;24.70;75.40;;;;;;5012446;28;20037;-66
2022/07/31 08:56:35;;;;;;;4.63;3.47;;;24.70;76.30;;;;;;5013775;28;20081;-66
2022/07/31 08:59:02;;;;;;;4.82;3.65;;;24.80;75.60;;;;;;5004855;28;20028;-66
2022/07/31 09:01:28;;;;;;;5.88;3.55;;;24.80;74.60;;;;;;5013130;28;20119;-66
2022/07/31 09:03:54;;;;;;;5.72;3.42;;;24.90;74.30;;;;;;5012905;28;20117;-66
2022/07/31 09:06:19;;;;;;;4.22;3.50;;;25.00;74.20;;;;;;5011841;28;20565;-67
2022/07/31 09:08:45;;;;;;;6.88;3.20;;;25.00;73.70;;;;;;5011697;28;20539;-67
2022/07/31 09:11:13;;;;;;;5.13;3.38;;;25.10;73.30;;;;;;5009725;28;20026;-66
2022/07/31 09:13:40;;;;;;;4.88;3.25;;;25.10;72.70;;;;;;5011073;28;20052;-66
2022/07/31 09:16:06;;;;;;;4.57;3.00;;;25.20;72.90;;;;;;5012280;28;20104;-68
2022/07/31 09:18:32;;;;;;;4.28;2.88;;;25.30;72.90;;;;;;5011599;28;20065;-66
2022/07/31 09:21:05;;;;;;;3.47;2.70;;;25.30;72.80;;;;;;5012401;28;20066;-68
2022/07/31 09:23:31;;;;;;;7.40;3.07;;;25.40;72.30;;;;;;5006698;28;20026;-67
2022/07/31 09:26:02;;;;;;;18.75;3.03;;;25.40;72.30;;;;;;5010298;28;20288;-67
2022/07/31 09:28:50;;;;;;;4.82;3.00;;;25.50;72.30;;;;;;5004728;28;20100;-67
2022/07/31 09:31:16;;;;;;;6.60;3.50;;;25.50;71.70;;;;;;5002316;28;20045;-67
2022/07/31 09:33:43;;;;;;;6.85;3.95;;;25.60;72.20;;;;;;5010630;28;20030;-67
2022/07/31 09:36:09;;;;;;;5.03;3.10;;;25.60;71.80;;;;;;5010981;28;20038;-67
2022/07/31 09:38:40;;;;;;;5.43;3.28;;;25.70;71.60;;;;;;5011470;28;20026;-67
2022/07/31 09:41:11;;;;;;;7.95;3.88;;;25.80;72.10;;;;;;5015376;28;20030;-67
2022/07/31 09:43:37;;;;;;;5.32;3.10;;;25.80;71.40;;;;;;5011172;28;20029;-68
2022/07/31 09:46:21;;;;;;;5.40;3.10;;;25.90;71.00;;;;;;5002479;28;20184;-67
2022/07/31 09:48:54;;;;;;;3.65;3.08;;;26.00;71.10;;;;;;5011177;28;20113;-67
2022/07/31 09:51:21;;;;;;;4.82;3.55;;;26.00;69.90;;;;;;5012256;28;20038;-67
2022/07/31 09:53:55;;;;;;;3.85;2.90;;;26.00;69.70;;;;;;5010665;28;20025;-67
2022/07/31 09:56:31;;;;;;;4.30;2.95;;;26.10;69.80;;;;;;5004627;28;20065;-66
2022/07/31 09:58:57;;;;;;;4.20;2.72;;;26.10;69.30;;;;;;5011559;28;20038;-67
2022/07/31 10:01:24;;;;;;;7.68;3.72;;;26.20;69.30;;;;;;5010420;28;20030;-66
2022/07/31 10:03:51;;;;;;;5.63;2.90;;;26.30;68.30;;;;;;5013262;28;20041;-66
2022/07/31 10:06:19;;;;;;;3.60;2.70;;;26.30;68.60;;;;;;5011760;28;20397;-66
2022/07/31 10:08:45;;;;;;;5.32;3.20;;;26.40;68.40;;;;;;5012309;28;20362;-66
2022/07/31 10:11:13;;;;;;;4.25;3.20;;;26.40;68.90;;;;;;5010500;28;20026;-66
2022/07/31 10:13:44;;;;;;;5.43;3.63;;;26.50;69.30;;;;;;5011118;28;20109;-67
2022/07/31 10:16:12;;;;;;;4.10;3.00;;;26.60;68.90;;;;;;5010692;28;20156;-66
2022/07/31 10:18:41;;;;;;;6.20;3.25;;;26.60;68.80;;;;;;5006683;28;20044;-66
2022/07/31 10:21:10;;;;;;;4.70;3.20;;;26.70;68.40;;;;;;5005829;28;20034;-70
2022/07/31 10:23:40;;;;;;;3.75;3.20;;;26.60;68.30;;;;;;5010326;28;20026;-67
2022/07/31 10:26:05;;;;;;;7.28;3.50;;;26.70;67.80;;;;;;5004825;28;20050;-66
2022/07/31 10:28:35;;;;;;;5.20;3.40;;;26.80;67.80;;;;;;5001744;28;24262;-66
2022/07/31 10:31:01;;;;;;;6.07;3.55;;;26.90;67.70;;;;;;5000242;28;20060;-67
2022/07/31 10:33:27;;;;;;;7.53;3.63;;;27.00;67.60;;;;;;4998241;28;20117;-67
2022/07/31 10:36:05;;;;;;;4.57;3.03;;;27.10;67.30;;;;;;5002079;28;20026;-68
2022/07/31 10:38:42;;;;;;;3.92;2.78;;;27.20;66.00;;;;;;4999994;28;20437;-68
2022/07/31 10:41:46;;;;;;;5.75;3.60;;;27.20;66.50;;;;;;5012495;28;20116;-67
2022/07/31 10:44:26;;;;;;;3.70;3.13;;;27.30;66.60;;;;;;4999598;28;20091;-68
2022/07/31 10:46:52;;;;;;;6.03;3.15;;;27.30;66.90;;;;;;4999321;28;20037;-67
2022/07/31 10:49:18;;;;;;;3.88;2.70;;;27.40;65.20;;;;;;4999411;28;20397;-68
2022/07/31 10:51:50;;;;;;;4.70;3.03;;;27.40;65.30;;;;;;4999629;28;20116;-67
2022/07/31 10:54:16;;;;;;;3.40;2.92;;;27.40;65.50;;;;;;4999783;28;20022;-67
2022/07/31 10:56:43;;;;;;;4.35;2.95;;;27.50;65.60;;;;;;5001546;28;20413;-67
2022/07/31 10:59:10;;;;;;;8.07;3.10;;;27.50;65.10;;;;;;4999208;28;20029;-67
2022/07/31 11:01:53;;;;;;;4.85;3.00;;;27.60;65.10;;;;;;5000803;28;20381;-66
2022/07/31 11:04:31;;;;;;;5.25;3.00;;;27.60;64.70;;;;;;5000464;28;20120;-67
2022/07/31 11:06:57;;;;;;;6.07;3.40;;;27.60;63.80;;;;;;5009685;28;20084;-66
2022/07/31 11:09:24;;;;;;;6.50;3.22;;;27.60;63.60;;;;;;5005402;28;20030;-67
2022/07/31 11:11:51;;;;;;;5.60;3.78;;;27.50;63.20;;;;;;5007259;28;20104;-67
2022/07/31 11:14:16;;;;;;;4.82;2.97;;;27.50;64.10;;;;;;5011684;28;20429;-66
2022/07/31 11:16:52;;;;;;;4.32;3.05;;;27.50;63.50;;;;;;5011290;28;20080;-67
2022/07/31 11:19:18;;;;;;;5.97;2.85;;;27.50;64.00;;;;;;5010863;28;20088;-66
2022/07/31 11:21:44;;;;;;;5.32;3.20;;;27.50;63.60;;;;;;5000709;28;20425;-66
2022/07/31 11:24:21;;;;;;;4.18;3.03;;;27.60;63.70;;;;;;5002805;28;20049;-66
2022/07/31 11:26:57;;;;;;;4.72;2.90;;;27.60;63.50;;;;;;5016659;28;20461;-66
2022/07/31 11:29:29;;;;;;;4.07;3.05;;;27.70;63.80;;;;;;5001791;28;20117;-67
2022/07/31 11:31:59;;;;;;;4.53;2.83;;;27.80;63.50;;;;;;5009428;28;20033;-66
2022/07/31 11:34:25;;;;;;;4.47;2.90;;;27.70;62.80;;;;;;5007824;28;20053;-66
2022/07/31 11:36:51;;;;;;;3.83;3.10;;;27.70;63.10;;;;;;4995858;28;20534;-66
2022/07/31 11:39:16;;;;;;;3.40;3.03;;;27.80;62.80;;;;;;5014889;28;20424;-66
2022/07/31 11:41:42;;;;;;;3.65;2.72;;;27.90;62.80;;;;;;5005212;28;20095;-66
2022/07/31 11:44:08;;;;;;;4.07;2.83;;;27.80;62.80;;;;;;5014498;28;20521;-67
2022/07/31 11:46:36;;;;;;;6.03;2.95;;;27.90;62.50;;;;;;5005992;28;20085;-67
2022/07/31 11:49:03;;;;;;;3.85;3.22;;;27.90;62.60;;;;;;5013084;28;20486;-67
2022/07/31 11:51:29;;;;;;;4.43;2.70;;;28.00;61.90;;;;;;5014264;28;20042;-67
2022/07/31 11:53:56;;;;;;;4.63;2.65;;;28.10;62.30;;;;;;5014822;28;20481;-67
2022/07/31 11:56:23;;;;;;;5.18;2.75;;;28.20;62.20;;;;;;5014400;28;20037;-67
2022/07/31 11:58:54;;;;;;;3.53;2.78;;;28.30;62.50;;;;;;5013693;28;20028;-67
2022/07/31 12:01:27;;;;;;;4.38;2.65;;;28.40;62.00;;;;;;4999930;28;20037;-66
2022/07/31 12:03:54;;;;;;;5.88;3.00;;;28.50;62.10;;;;;;5011745;28;20136;-66
2022/07/31 12:06:20;;;;;;;6.45;3.65;;;28.60;60.70;;;;;;5007208;28;20046;-65
2022/07/31 12:08:48;;;;;;;4.30;3.15;;;28.60;60.50;;;;;;5005945;28;20030;-65
2022/07/31 12:11:17;;;;;;;5.35;3.15;;;28.60;60.20;;;;;;5024202;28;20092;-66
2022/07/31 12:13:48;;;;;;;4.43;3.33;;;28.70;59.40;;;;;;5013982;28;20113;-65
2022/07/31 12:16:19;;;;;;;9.35;3.20;;;28.70;60.60;;;;;;5014636;28;20395;-65
2022/07/31 12:18:57;;;;;;;6.07;3.20;;;28.80;60.60;;;;;;5013251;28;20030;-65
2022/07/31 12:21:34;;;;;;;5.63;3.15;;;28.80;60.20;;;;;;5012454;28;20393;-65
2022/07/31 12:24:00;;;;;;;4.88;3.45;;;28.70;60.40;;;;;;5011507;28;20026;-65
2022/07/31 12:26:31;;;;;;;6.38;3.33;;;28.70;60.80;;;;;;5005303;28;20385;-65
2022/07/31 12:28:57;;;;;;;5.32;3.67;;;28.70;60.50;;;;;;5013235;28;20088;-65
2022/07/31 12:31:23;;;;;;;3.75;2.92;;;28.60;60.00;;;;;;5014442;28;20026;-65
2022/07/31 12:33:48;;;;;;;6.25;3.58;;;28.60;59.80;;;;;;5013553;28;20030;-65
2022/07/31 12:36:15;;;;;;;6.25;3.67;;;28.60;60.70;;;;;;5002999;28;20060;-65
2022/07/31 12:38:42;;;;;;;7.97;3.58;;;28.50;60.80;;;;;;5004107;28;20037;-66
2022/07/31 12:41:08;;;;;;;4.97;3.60;;;28.50;60.50;;;;;;5010794;28;20073;-66
2022/07/31 12:43:33;;;;;;;7.20;4.32;;;28.50;61.00;;;;;;4999903;28;20485;-66
2022/07/31 12:46:03;;;;;;;7.00;4.57;;;28.50;61.20;;;;;;5011368;28;20036;-65
2022/07/31 12:48:32;;;;;;;5.68;3.47;;;28.50;61.20;;;;;;5011220;28;20041;-65
2022/07/31 12:50:59;;;;;;;5.47;3.33;;;28.50;61.00;;;;;;4998897;28;20378;-65